Time;durP1;ratioP1;P1;durP2;ratioP2;P2;SDS_P1;SDS_P2;PMS_P1;PMS_P2;Temp;Humidity;BMP_temperature;BMP_pressure;BME280_temperature;BME280_humidity;BME280_pressure;Samples;Min_cycle;Max_cycle;Signal;HPM_P1;HPM_P2
2022/10/17 00:01:09;;;;;;;2.87;2.13;;;18.70;99.90;;;;;;5054848;28;20575;-74
2022/10/17 00:03:36;;;;;;;2.93;2.43;;;18.70;99.90;;;;;;5053502;28;20168;-74
2022/10/17 00:06:13;;;;;;;2.73;2.03;;;18.70;99.90;;;;;;5054772;28;20560;-74
2022/10/17 00:08:40;;;;;;;3.93;1.90;;;18.70;99.90;;;;;;5055799;28;20983;-74
2022/10/17 00:11:20;;;;;;;3.20;2.57;;;18.70;99.90;;;;;;5054685;28;20927;-74
2022/10/17 00:13:48;;;;;;;4.30;2.40;;;18.70;99.90;;;;;;5054378;28;21145;-74
2022/10/17 00:16:26;;;;;;;2.37;2.17;;;18.70;99.90;;;;;;5053054;28;20623;-74
2022/10/17 00:18:53;;;;;;;3.70;3.30;;;18.70;99.90;;;;;;5036787;28;20670;-73
2022/10/17 00:21:20;;;;;;;3.33;2.60;;;18.70;99.90;;;;;;5054431;28;20563;-74
2022/10/17 00:23:46;;;;;;;3.37;2.70;;;18.70;99.90;;;;;;5054390;28;20559;-74
2022/10/17 00:26:13;;;;;;;3.33;2.80;;;18.70;99.90;;;;;;5053776;28;20582;-74
2022/10/17 00:28:39;;;;;;;4.63;2.70;;;18.70;99.90;;;;;;5054336;28;20610;-74
2022/10/17 00:31:05;;;;;;;3.00;2.37;;;18.70;99.90;;;;;;5054079;28;20572;-74
2022/10/17 00:33:33;;;;;;;4.10;2.20;;;18.70;99.90;;;;;;5069052;22;20810;-77
2022/10/17 00:36:15;;;;;;;3.90;2.57;;;18.70;99.90;;;;;;5049012;28;21188;-77
2022/10/17 00:38:43;;;;;;;3.97;2.73;;;18.70;99.90;;;;;;5052964;28;20578;-77
2022/10/17 00:41:11;;;;;;;4.27;3.23;;;18.70;99.90;;;;;;5052750;28;20567;-77
2022/10/17 00:43:54;;;;;;;3.50;3.00;;;18.70;99.90;;;;;;5019402;28;20603;-77
2022/10/17 00:46:21;;;;;;;3.83;2.40;;;18.70;99.90;;;;;;5052100;28;20582;-77
2022/10/17 00:48:49;;;;;;;2.40;1.90;;;18.70;99.90;;;;;;5042183;28;20588;-77
2022/10/17 00:51:17;;;;;;;3.60;2.43;;;18.70;99.90;;;;;;5052299;28;20675;-76
2022/10/17 00:53:43;;;;;;;2.93;2.60;;;18.70;99.90;;;;;;5052420;28;20607;-77
2022/10/17 00:56:10;;;;;;;2.90;2.27;;;18.70;99.90;;;;;;5019072;28;21011;-76
2022/10/17 00:58:36;;;;;;;4.43;2.50;;;18.70;99.90;;;;;;5052700;28;20157;-76
2022/10/17 01:01:02;;;;;;;2.60;2.40;;;18.80;99.90;;;;;;5035735;28;21376;-74
2022/10/17 01:03:28;;;;;;;5.80;2.90;;;18.80;99.90;;;;;;5053503;28;20599;-76
2022/10/17 01:05:54;;;;;;;3.10;2.83;;;18.80;99.90;;;;;;5052381;28;20583;-76
2022/10/17 01:08:20;;;;;;;3.30;2.43;;;18.80;99.90;;;;;;5051165;28;20606;-76
2022/10/17 01:10:58;;;;;;;4.10;2.33;;;18.80;99.90;;;;;;5052300;28;20564;-77
2022/10/17 01:13:47;;;;;;;3.80;2.30;;;18.80;99.90;;;;;;5052962;28;21174;-76
2022/10/17 01:16:33;;;;;;;4.63;2.47;;;18.80;99.90;;;;;;5053192;28;20628;-77
2022/10/17 01:19:56;;;;;;;3.70;2.30;;;18.80;99.90;;;;;;5019076;28;20579;-77
2022/10/17 01:22:41;;;;;;;3.40;2.73;;;18.80;99.90;;;;;;5051845;28;20602;-76
2022/10/17 01:25:36;;;;;;;2.33;1.70;;;18.80;99.90;;;;;;5048197;28;20588;-76
2022/10/17 01:28:20;;;;;;;6.83;2.30;;;18.80;99.90;;;;;;4958345;28;20594;-76
2022/10/17 01:31:03;;;;;;;3.07;2.30;;;18.80;99.90;;;;;;5052080;28;20549;-76
2022/10/17 01:33:53;;;;;;;3.23;2.23;;;18.90;99.90;;;;;;5051313;28;20631;-76
2022/10/17 01:36:40;;;;;;;3.40;2.13;;;18.80;99.90;;;;;;5053072;28;20620;-76
2022/10/17 01:39:18;;;;;;;5.47;2.47;;;18.80;99.90;;;;;;5051856;28;20926;-77
2022/10/17 01:42:13;;;;;;;2.60;2.00;;;18.80;99.90;;;;;;5035105;28;20567;-77
2022/10/17 01:45:02;;;;;;;3.47;2.07;;;18.80;99.90;;;;;;5051748;28;20563;-76
2022/10/17 01:47:31;;;;;;;2.77;1.70;;;18.80;99.90;;;;;;5051754;28;20674;-76
2022/10/17 01:50:05;;;;;;;3.20;2.40;;;18.90;99.90;;;;;;5035487;28;20619;-77
2022/10/17 01:53:13;;;;;;;4.60;2.70;;;18.80;99.90;;;;;;5051166;28;21150;-76
2022/10/17 01:55:41;;;;;;;2.60;2.40;;;18.80;99.90;;;;;;4958479;28;21259;-76
2022/10/17 01:58:28;;;;;;;2.10;1.90;;;18.80;99.90;;;;;;4974691;28;20601;-76
2022/10/17 02:00:57;;;;;;;4.83;2.43;;;18.80;99.90;;;;;;5023779;28;20690;-76
2022/10/17 02:03:24;;;;;;;2.97;2.40;;;18.80;99.90;;;;;;5034310;28;20603;-76
2022/10/17 02:05:50;;;;;;;4.50;2.60;;;18.80;99.90;;;;;;5051183;28;20641;-76
2022/10/17 02:08:41;;;;;;;3.67;2.20;;;18.70;99.90;;;;;;5034675;28;20575;-76
2022/10/17 02:11:24;;;;;;;5.00;2.43;;;18.70;99.90;;;;;;5051086;28;20594;-76
2022/10/17 02:14:17;;;;;;;7.07;3.17;;;18.60;99.90;;;;;;5050694;28;20634;-76
2022/10/17 02:16:46;;;;;;;3.67;3.37;;;18.60;99.90;;;;;;5051066;28;20626;-76
2022/10/17 02:19:37;;;;;;;4.83;3.03;;;18.60;99.90;;;;;;5034185;28;20979;-76
2022/10/17 02:22:16;;;;;;;3.30;3.00;;;18.60;99.90;;;;;;4996945;28;20650;-76
2022/10/17 02:24:50;;;;;;;3.57;2.73;;;18.60;99.90;;;;;;5052344;28;21085;-76
2022/10/17 02:27:39;;;;;;;4.83;2.63;;;18.60;99.90;;;;;;5051046;28;20572;-76
2022/10/17 02:30:09;;;;;;;2.47;2.27;;;18.60;99.90;;;;;;5037122;28;20584;-76
2022/10/17 02:33:02;;;;;;;5.07;2.67;;;18.60;99.90;;;;;;5033663;28;20670;-75
2022/10/17 02:35:34;;;;;;;4.27;2.10;;;18.50;99.90;;;;;;5052021;28;20626;-76
2022/10/17 02:38:02;;;;;;;3.80;2.70;;;18.50;99.90;;;;;;5050607;28;20584;-75
2022/10/17 02:40:30;;;;;;;6.37;2.33;;;18.50;99.90;;;;;;5050621;28;20599;-75
2022/10/17 02:42:59;;;;;;;3.40;2.37;;;18.50;99.90;;;;;;5050230;28;20634;-75
2022/10/17 02:45:28;;;;;;;3.00;2.50;;;18.50;99.90;;;;;;5051907;28;20564;-76
2022/10/17 02:48:22;;;;;;;2.70;2.17;;;18.50;99.90;;;;;;5034366;28;21162;-76
2022/10/17 02:51:01;;;;;;;3.90;2.10;;;18.50;99.90;;;;;;5051054;28;21153;-76
2022/10/17 02:53:39;;;;;;;5.07;2.00;;;18.50;99.90;;;;;;5050465;28;20629;-75
2022/10/17 02:56:11;;;;;;;3.70;2.87;;;18.60;99.90;;;;;;5034157;28;20688;-75
2022/10/17 02:58:38;;;;;;;4.83;2.53;;;18.50;99.90;;;;;;5050978;28;20630;-75
2022/10/17 03:01:04;;;;;;;2.93;2.50;;;18.50;99.90;;;;;;5050769;28;20738;-76
2022/10/17 03:03:31;;;;;;;3.10;2.63;;;18.60;99.90;;;;;;5050388;28;20653;-76
2022/10/17 03:06:00;;;;;;;7.17;3.43;;;18.60;99.90;;;;;;5050280;28;20582;-75
2022/10/17 03:08:26;;;;;;;4.30;3.37;;;18.60;99.90;;;;;;5051490;28;20924;-76
2022/10/17 03:10:52;;;;;;;4.63;2.63;;;18.60;99.90;;;;;;5051487;28;20575;-76
2022/10/17 03:13:19;;;;;;;5.87;2.30;;;18.60;99.90;;;;;;5032967;28;20189;-76
2022/10/17 03:15:45;;;;;;;3.60;2.70;;;18.60;99.90;;;;;;5033264;28;20629;-76
2022/10/17 03:18:11;;;;;;;2.73;2.50;;;18.60;99.90;;;;;;5050071;28;20169;-76
2022/10/17 03:20:37;;;;;;;3.33;2.30;;;18.60;99.90;;;;;;5050084;28;20583;-75
2022/10/17 03:23:03;;;;;;;5.20;3.00;;;18.60;99.90;;;;;;5049631;28;20682;-76
2022/10/17 03:25:29;;;;;;;3.63;2.33;;;18.60;99.90;;;;;;5051401;28;20247;-76
2022/10/17 03:27:59;;;;;;;2.50;2.30;;;18.60;99.90;;;;;;5050167;28;20679;-76
2022/10/17 03:30:25;;;;;;;2.90;2.30;;;18.60;99.90;;;;;;5050205;28;20983;-76
2022/10/17 03:32:51;;;;;;;2.63;2.33;;;18.60;99.90;;;;;;5053221;28;20705;-76
2022/10/17 03:35:17;;;;;;;2.87;2.33;;;18.60;99.90;;;;;;5053831;28;20638;-76
2022/10/17 03:37:46;;;;;;;4.13;2.73;;;18.60;99.90;;;;;;5053949;28;20188;-76
2022/10/17 03:40:13;;;;;;;2.33;2.13;;;18.60;99.90;;;;;;5037214;28;21157;-76
2022/10/17 03:42:39;;;;;;;6.03;4.13;;;18.60;99.90;;;;;;5053345;28;20595;-76
2022/10/17 03:45:05;;;;;;;5.17;2.50;;;18.60;99.90;;;;;;5053766;28;20655;-76
2022/10/17 03:47:31;;;;;;;4.00;2.00;;;18.60;99.90;;;;;;5037197;28;20165;-76
2022/10/17 03:49:57;;;;;;;2.40;2.20;;;18.60;99.90;;;;;;5053602;28;21194;-76
2022/10/17 03:52:23;;;;;;;3.10;2.60;;;18.60;99.90;;;;;;5054332;28;20742;-76
2022/10/17 03:54:50;;;;;;;3.07;2.80;;;18.60;99.90;;;;;;5053611;28;20227;-76
2022/10/17 03:57:20;;;;;;;3.50;2.87;;;18.60;99.90;;;;;;5053272;28;21051;-76
2022/10/17 03:59:46;;;;;;;4.20;2.37;;;18.60;99.90;;;;;;5036681;28;20903;-76
2022/10/17 04:02:16;;;;;;;4.20;2.60;;;18.60;99.90;;;;;;5052544;28;20607;-76
2022/10/17 04:04:42;;;;;;;3.93;2.73;;;18.60;99.90;;;;;;5020314;28;20618;-76
2022/10/17 04:07:08;;;;;;;3.93;2.20;;;18.60;99.90;;;;;;5053205;28;20595;-76
2022/10/17 04:09:37;;;;;;;6.13;3.33;;;18.60;99.90;;;;;;5053078;28;20596;-76
2022/10/17 04:12:10;;;;;;;3.87;2.73;;;18.60;99.90;;;;;;5052784;28;20609;-76
2022/10/17 04:14:37;;;;;;;4.70;3.13;;;18.60;99.90;;;;;;5053166;28;20590;-76
2022/10/17 04:17:03;;;;;;;3.63;2.80;;;18.60;99.90;;;;;;5052988;28;20726;-76
2022/10/17 04:19:30;;;;;;;3.30;3.00;;;18.60;99.90;;;;;;5053226;28;21220;-76
2022/10/17 04:21:56;;;;;;;6.27;2.70;;;18.60;99.90;;;;;;5052872;28;20699;-76
2022/10/17 04:24:22;;;;;;;3.63;2.63;;;18.60;99.90;;;;;;5053071;28;21087;-76
2022/10/17 04:26:57;;;;;;;3.87;2.53;;;18.60;99.90;;;;;;5053007;28;20571;-76
2022/10/17 04:29:27;;;;;;;3.67;2.67;;;18.60;99.90;;;;;;5036171;28;20674;-76
2022/10/17 04:32:00;;;;;;;3.30;2.80;;;18.60;99.90;;;;;;5052488;28;20665;-76
2022/10/17 04:34:41;;;;;;;3.87;2.17;;;18.60;99.90;;;;;;5052894;28;20566;-76
2022/10/17 04:37:07;;;;;;;3.40;2.33;;;18.70;99.90;;;;;;5054011;28;20627;-76
2022/10/17 04:39:34;;;;;;;2.43;2.23;;;18.60;99.90;;;;;;5052654;28;20625;-76
2022/10/17 04:42:00;;;;;;;4.50;2.97;;;18.70;99.90;;;;;;5053104;28;20607;-76
2022/10/17 04:44:29;;;;;;;8.73;3.07;;;18.70;99.90;;;;;;5052611;28;20286;-76
2022/10/17 04:46:57;;;;;;;6.33;3.03;;;18.70;99.90;;;;;;5052568;28;20583;-76
2022/10/17 04:49:22;;;;;;;3.80;2.77;;;18.70;99.90;;;;;;5052327;28;20575;-76
2022/10/17 04:51:52;;;;;;;5.30;2.60;;;18.70;99.90;;;;;;5035686;28;20189;-76
2022/10/17 04:54:29;;;;;;;3.93;2.47;;;18.70;99.90;;;;;;5052443;28;20575;-76
2022/10/17 04:57:05;;;;;;;4.83;2.20;;;18.70;99.90;;;;;;5035665;28;21047;-76
2022/10/17 04:59:32;;;;;;;3.20;2.90;;;18.70;99.90;;;;;;5052209;28;21145;-76
2022/10/17 05:02:11;;;;;;;3.50;2.90;;;18.70;99.90;;;;;;5051909;28;20606;-76
2022/10/17 05:04:37;;;;;;;5.80;2.83;;;18.70;99.90;;;;;;5052619;28;20575;-76
2022/10/17 05:07:03;;;;;;;3.17;2.50;;;18.70;99.90;;;;;;5052555;28;20571;-76
2022/10/17 05:09:45;;;;;;;3.63;2.97;;;18.70;99.90;;;;;;5052408;28;20595;-77
2022/10/17 05:12:11;;;;;;;2.80;2.47;;;18.70;99.90;;;;;;5051978;28;20598;-77
2022/10/17 05:14:40;;;;;;;3.13;2.57;;;18.70;99.90;;;;;;5052368;28;20574;-77
2022/10/17 05:17:06;;;;;;;4.50;4.10;;;18.70;99.90;;;;;;5053188;28;20722;-77
2022/10/17 05:19:31;;;;;;;4.03;2.80;;;18.70;99.90;;;;;;5032372;28;20533;-76
2022/10/17 05:21:58;;;;;;;5.77;3.43;;;18.70;99.90;;;;;;5031993;28;20272;-77
2022/10/17 05:24:23;;;;;;;3.57;2.87;;;18.70;99.90;;;;;;5033603;28;20671;-76
2022/10/17 05:26:50;;;;;;;3.90;2.93;;;18.80;99.90;;;;;;5015663;28;20178;-76
2022/10/17 05:29:17;;;;;;;3.50;2.93;;;18.80;99.90;;;;;;5032195;28;20184;-77
2022/10/17 05:31:48;;;;;;;3.40;2.50;;;18.80;99.90;;;;;;5031993;28;20618;-77
2022/10/17 05:34:13;;;;;;;3.93;2.37;;;18.80;99.90;;;;;;5031771;28;20920;-78
2022/10/17 05:36:40;;;;;;;4.10;2.40;;;18.80;99.90;;;;;;5031879;28;20229;-77
2022/10/17 05:39:07;;;;;;;3.20;2.90;;;18.90;99.90;;;;;;5031790;28;21256;-77
2022/10/17 05:41:34;;;;;;;5.20;2.43;;;18.90;99.90;;;;;;5031724;28;20564;-78
2022/10/17 05:44:00;;;;;;;3.63;2.57;;;18.90;99.90;;;;;;5031428;28;20565;-77
2022/10/17 05:46:38;;;;;;;4.30;2.43;;;18.90;99.90;;;;;;5015325;28;20687;-77
2022/10/17 05:49:04;;;;;;;3.50;2.73;;;18.90;99.90;;;;;;5015224;28;20576;-78
2022/10/17 05:51:32;;;;;;;2.87;2.37;;;18.90;99.90;;;;;;5014805;28;20576;-77
2022/10/17 05:53:58;;;;;;;5.23;2.40;;;19.00;99.90;;;;;;5030539;28;20933;-77
2022/10/17 05:56:26;;;;;;;3.20;2.57;;;18.90;99.90;;;;;;5031592;28;20639;-77
2022/10/17 05:58:53;;;;;;;3.70;2.70;;;18.90;99.90;;;;;;5029535;28;20568;-76
2022/10/17 06:01:34;;;;;;;3.50;2.60;;;18.90;99.90;;;;;;5031153;28;20572;-76
2022/10/17 06:03:59;;;;;;;5.10;2.63;;;18.90;99.90;;;;;;5031027;28;20591;-75
2022/10/17 06:06:25;;;;;;;4.07;2.10;;;19.00;99.90;;;;;;5031074;28;20166;-76
2022/10/17 06:08:51;;;;;;;2.30;2.10;;;18.90;99.90;;;;;;5014892;28;20227;-76
2022/10/17 06:11:22;;;;;;;5.13;2.80;;;19.00;99.90;;;;;;5021603;28;20714;-76
2022/10/17 06:13:49;;;;;;;3.80;2.30;;;19.00;99.90;;;;;;5030691;28;20623;-75
2022/10/17 06:16:20;;;;;;;4.10;2.80;;;19.00;99.90;;;;;;5031026;28;20620;-75
2022/10/17 06:18:47;;;;;;;3.43;3.13;;;19.00;99.90;;;;;;5031172;28;21090;-76
2022/10/17 06:21:16;;;;;;;4.20;2.97;;;19.00;99.90;;;;;;5003673;28;20581;-76
2022/10/17 06:23:45;;;;;;;4.00;2.73;;;19.10;99.90;;;;;;5030571;28;20612;-75
2022/10/17 06:26:15;;;;;;;3.53;2.00;;;19.10;99.90;;;;;;5031129;28;20577;-74
2022/10/17 06:28:42;;;;;;;5.83;2.57;;;19.10;99.90;;;;;;5031197;28;20605;-74
2022/10/17 06:31:14;;;;;;;4.93;3.20;;;19.10;99.90;;;;;;5013271;28;20606;-74
2022/10/17 06:33:40;;;;;;;4.30;3.20;;;19.20;99.90;;;;;;4997678;28;20663;-75
2022/10/17 06:36:10;;;;;;;3.57;2.73;;;19.20;99.90;;;;;;5030411;28;20639;-75
2022/10/17 06:38:37;;;;;;;3.63;2.90;;;19.30;99.90;;;;;;5030790;28;20623;-76
2022/10/17 06:41:12;;;;;;;3.27;2.97;;;19.30;99.90;;;;;;5030329;28;21041;-76
2022/10/17 06:43:40;;;;;;;4.40;3.13;;;19.30;99.90;;;;;;5030155;28;20658;-76
2022/10/17 06:46:28;;;;;;;5.03;2.83;;;19.40;99.90;;;;;;5012160;28;20573;-76
2022/10/17 06:48:59;;;;;;;4.53;2.83;;;19.50;99.90;;;;;;5027242;28;20630;-76
2022/10/17 06:51:48;;;;;;;7.20;2.67;;;19.50;99.90;;;;;;5010545;28;20648;-74
2022/10/17 06:54:18;;;;;;;5.83;3.67;;;19.50;99.90;;;;;;5026784;28;20586;-76
2022/10/17 06:56:46;;;;;;;3.67;2.90;;;19.60;99.90;;;;;;5011726;28;20625;-75
2022/10/17 06:59:30;;;;;;;3.50;3.07;;;19.60;99.90;;;;;;5024710;28;20561;-75
2022/10/17 07:02:04;;;;;;;3.53;2.70;;;19.70;99.90;;;;;;5009495;28;20617;-76
2022/10/17 07:04:30;;;;;;;7.63;2.60;;;19.80;99.90;;;;;;5026642;28;20580;-75
2022/10/17 07:06:56;;;;;;;4.33;2.40;;;19.80;99.90;;;;;;5025985;28;20936;-76
2022/10/17 07:09:26;;;;;;;3.27;2.60;;;19.90;99.90;;;;;;5026842;28;20182;-76
2022/10/17 07:11:52;;;;;;;3.87;2.20;;;20.00;99.90;;;;;;5011428;28;20708;-76
2022/10/17 07:14:21;;;;;;;3.60;2.60;;;20.10;99.90;;;;;;5026547;28;20680;-75
2022/10/17 07:16:48;;;;;;;7.73;2.40;;;20.10;99.90;;;;;;5026624;28;20731;-76
2022/10/17 07:19:19;;;;;;;4.80;2.10;;;20.20;99.90;;;;;;5010247;28;20593;-76
2022/10/17 07:21:45;;;;;;;4.90;2.43;;;20.40;99.90;;;;;;5009980;28;20605;-76
2022/10/17 07:24:12;;;;;;;3.53;2.00;;;20.40;99.90;;;;;;5026343;28;20628;-78
2022/10/17 07:26:40;;;;;;;5.67;3.47;;;20.50;99.90;;;;;;5010182;28;21148;-77
2022/10/17 07:29:06;;;;;;;5.10;2.97;;;20.50;99.90;;;;;;5026617;28;20631;-75
2022/10/17 07:31:37;;;;;;;3.60;2.50;;;20.60;99.90;;;;;;5026540;28;20680;-74
2022/10/17 07:34:03;;;;;;;7.10;2.77;;;20.70;99.90;;;;;;5026090;28;21184;-74
2022/10/17 07:36:29;;;;;;;4.03;2.40;;;20.70;99.90;;;;;;5026828;28;20297;-74
2022/10/17 07:38:56;;;;;;;5.63;2.50;;;20.80;99.90;;;;;;5026552;28;20634;-74
2022/10/17 07:41:23;;;;;;;3.27;2.33;;;20.80;99.90;;;;;;5010132;28;20612;-75
2022/10/17 07:43:50;;;;;;;3.83;2.80;;;20.90;99.90;;;;;;5026548;28;20613;-74
2022/10/17 07:46:20;;;;;;;3.33;2.27;;;20.90;99.90;;;;;;5025567;28;20619;-74
2022/10/17 07:48:46;;;;;;;4.83;2.40;;;21.00;99.90;;;;;;5029582;28;20596;-74
2022/10/17 07:51:12;;;;;;;5.77;2.67;;;21.10;99.90;;;;;;5028320;28;20666;-73
2022/10/17 07:53:39;;;;;;;3.73;2.60;;;21.20;99.90;;;;;;5030299;28;20608;-75
2022/10/17 07:56:08;;;;;;;2.90;1.97;;;21.20;99.90;;;;;;5029572;28;20204;-75
2022/10/17 07:58:35;;;;;;;3.40;2.40;;;21.30;99.90;;;;;;5035177;28;20600;-75
2022/10/17 08:01:07;;;;;;;3.90;2.23;;;21.30;99.90;;;;;;5029745;28;20718;-74
2022/10/17 08:03:33;;;;;;;2.80;1.80;;;21.40;99.90;;;;;;5030359;28;20642;-74
2022/10/17 08:06:00;;;;;;;6.97;3.17;;;21.50;99.90;;;;;;5029853;28;20667;-74
2022/10/17 08:08:27;;;;;;;2.30;2.00;;;21.60;99.90;;;;;;5026904;28;20635;-74
2022/10/17 08:10:54;;;;;;;1.87;1.50;;;21.90;99.90;;;;;;5030591;28;20608;-75
2022/10/17 08:13:21;;;;;;;3.70;2.43;;;22.20;99.90;;;;;;5012507;28;20690;-75
2022/10/17 08:15:47;;;;;;;8.20;2.37;;;22.50;99.90;;;;;;5038161;28;20995;-76
2022/10/17 08:18:14;;;;;;;4.23;1.90;;;22.90;99.90;;;;;;5045133;28;20713;-76
2022/10/17 08:20:40;;;;;;;7.17;2.03;;;23.20;99.90;;;;;;5041776;28;20603;-76
2022/10/17 08:23:06;;;;;;;2.53;1.97;;;23.50;99.90;;;;;;5029897;28;20670;-75
2022/10/17 08:25:32;;;;;;;2.83;1.83;;;23.60;99.90;;;;;;5030953;28;20670;-75
2022/10/17 08:27:58;;;;;;;3.80;1.80;;;23.60;99.90;;;;;;5030785;28;20181;-76
2022/10/17 08:30:24;;;;;;;4.97;1.70;;;23.70;99.90;;;;;;5029705;28;20182;-76
2022/10/17 08:32:50;;;;;;;2.60;1.60;;;23.80;99.90;;;;;;5032578;28;20611;-76
2022/10/17 08:35:16;;;;;;;2.90;1.73;;;23.80;99.90;;;;;;5031370;28;20591;-76
2022/10/17 08:37:42;;;;;;;3.57;1.57;;;23.80;99.90;;;;;;5031970;28;20576;-76
2022/10/17 08:40:18;;;;;;;4.30;2.07;;;23.90;99.90;;;;;;5032587;28;20572;-76
2022/10/17 08:42:58;;;;;;;4.00;1.87;;;23.90;99.90;;;;;;5032937;28;20646;-76
2022/10/17 08:45:30;;;;;;;4.67;1.87;;;23.90;99.90;;;;;;5032706;28;21005;-75
2022/10/17 08:48:04;;;;;;;4.00;2.37;;;23.70;99.90;;;;;;5033899;28;21028;-77
2022/10/17 08:50:42;;;;;;;3.40;1.60;;;23.40;99.90;;;;;;5032732;28;20572;-75
2022/10/17 08:53:36;;;;;;;5.53;1.87;;;23.20;99.90;;;;;;5031350;28;20607;-76
2022/10/17 08:56:15;;;;;;;6.30;2.80;;;22.90;99.90;;;;;;5014819;28;20636;-74
2022/10/17 08:58:41;;;;;;;4.93;1.83;;;22.80;99.90;;;;;;5015543;28;20633;-74
2022/10/17 09:01:30;;;;;;;6.13;1.90;;;22.70;99.90;;;;;;5032715;28;20568;-75
2022/10/17 09:04:14;;;;;;;5.00;2.07;;;22.60;99.90;;;;;;5033023;28;20169;-75
2022/10/17 09:07:04;;;;;;;5.93;2.10;;;22.60;99.90;;;;;;5032717;28;20615;-76
2022/10/17 09:09:40;;;;;;;7.10;2.33;;;22.80;99.90;;;;;;5031953;28;20615;-75
2022/10/17 09:12:24;;;;;;;3.30;1.90;;;23.10;99.90;;;;;;5032882;28;20631;-74
2022/10/17 09:15:22;;;;;;;4.93;2.10;;;23.10;99.90;;;;;;5032989;28;20580;-75
2022/10/17 09:18:01;;;;;;;4.37;2.00;;;23.10;99.90;;;;;;5015781;28;21183;-75
2022/10/17 09:20:36;;;;;;;3.10;1.90;;;22.90;99.90;;;;;;5032957;28;20568;-76
2022/10/17 09:23:13;;;;;;;6.90;2.07;;;22.80;99.90;;;;;;5032741;28;20709;-75
2022/10/17 09:25:50;;;;;;;3.17;1.77;;;22.90;99.90;;;;;;5033200;28;20947;-76
2022/10/17 09:28:28;;;;;;;3.70;1.70;;;22.90;99.90;;;;;;5031616;28;20701;-76
2022/10/17 09:31:10;;;;;;;7.33;1.67;;;22.90;99.90;;;;;;5032559;28;20578;-76
2022/10/17 09:33:45;;;;;;;4.60;1.77;;;23.00;99.90;;;;;;5011251;28;20628;-76
2022/10/17 09:36:18;;;;;;;5.67;1.83;;;23.10;99.90;;;;;;5012833;28;20616;-77
2022/10/17 09:38:51;;;;;;;7.13;1.87;;;23.20;99.90;;;;;;5012044;28;20573;-76
2022/10/17 09:41:40;;;;;;;3.60;1.57;;;23.30;99.90;;;;;;5012966;28;20668;-75
2022/10/17 09:44:32;;;;;;;2.73;1.80;;;23.30;99.90;;;;;;5011547;28;20664;-75
2022/10/17 09:47:38;;;;;;;4.07;1.93;;;23.40;99.90;;;;;;5022651;28;20594;-75
2022/10/17 09:50:14;;;;;;;4.97;2.27;;;23.40;99.90;;;;;;5027621;28;20675;-75
2022/10/17 09:52:46;;;;;;;5.10;2.30;;;23.30;99.90;;;;;;5031086;28;20606;-76
2022/10/17 09:55:25;;;;;;;5.00;2.23;;;23.20;99.90;;;;;;5014774;28;20576;-75
2022/10/17 09:57:57;;;;;;;4.17;1.90;;;23.20;99.90;;;;;;5030428;28;20560;-75
2022/10/17 10:00:46;;;;;;;3.70;2.30;;;23.20;99.90;;;;;;5031300;28;20578;-75
2022/10/17 10:03:11;;;;;;;3.40;2.20;;;23.20;99.90;;;;;;5013987;28;20604;-74
2022/10/17 10:05:38;;;;;;;5.13;2.87;;;23.30;99.90;;;;;;5032155;28;20561;-75
2022/10/17 10:08:12;;;;;;;4.33;3.13;;;23.30;99.90;;;;;;5029123;28;20268;-75
2022/10/17 10:10:42;;;;;;;4.70;3.10;;;23.30;99.90;;;;;;5030843;28;20580;-74
2022/10/17 10:13:13;;;;;;;6.10;4.10;;;23.50;99.90;;;;;;5013915;28;20616;-75
2022/10/17 10:15:42;;;;;;;5.33;2.70;;;23.60;99.90;;;;;;5028802;28;20635;-75
2022/10/17 10:18:30;;;;;;;4.37;2.40;;;23.60;99.90;;;;;;5028799;28;20639;-77
2022/10/17 10:21:02;;;;;;;3.70;2.20;;;23.70;99.90;;;;;;5031674;28;20593;-75
2022/10/17 10:23:28;;;;;;;7.07;2.57;;;24.00;99.90;;;;;;5030214;28;20596;-75
2022/10/17 10:25:55;;;;;;;6.03;1.87;;;24.20;99.90;;;;;;5031894;28;20636;-74
2022/10/17 10:28:30;;;;;;;3.10;2.80;;;24.40;99.90;;;;;;5031818;28;20169;-74
2022/10/17 10:30:59;;;;;;;3.90;2.60;;;24.50;99.90;;;;;;5031394;28;20572;-75
2022/10/17 10:33:28;;;;;;;4.10;3.27;;;24.50;99.90;;;;;;5030879;28;20635;-74
2022/10/17 10:36:00;;;;;;;6.53;4.20;;;24.40;99.90;;;;;;5031714;28;20656;-74
2022/10/17 10:38:27;;;;;;;5.37;3.60;;;24.30;99.90;;;;;;5030771;28;20599;-74
2022/10/17 10:40:56;;;;;;;4.73;2.73;;;24.30;99.90;;;;;;4997043;28;20584;-75
2022/10/17 10:43:34;;;;;;;3.73;2.00;;;24.30;99.90;;;;;;5031291;28;20604;-73
2022/10/17 10:46:03;;;;;;;3.50;1.53;;;24.40;99.90;;;;;;5032002;28;21112;-74
2022/10/17 10:48:31;;;;;;;2.47;1.87;;;24.40;99.90;;;;;;5030178;28;20596;-75
2022/10/17 10:51:03;;;;;;;5.30;2.27;;;24.40;99.90;;;;;;5031176;28;20568;-74
2022/10/17 10:53:38;;;;;;;2.33;1.37;;;24.40;99.90;;;;;;5030013;28;20985;-75
2022/10/17 10:56:43;;;;;;;2.57;1.50;;;24.50;99.90;;;;;;5026538;28;20631;-75
2022/10/17 10:59:17;;;;;;;2.90;1.50;;;24.50;99.90;;;;;;5028097;28;20586;-75
2022/10/17 11:01:55;;;;;;;5.30;1.57;;;24.50;99.90;;;;;;5029593;28;20888;-75
2022/10/17 11:04:24;;;;;;;3.90;1.67;;;24.50;99.90;;;;;;5031160;28;20588;-75
2022/10/17 11:06:54;;;;;;;4.67;1.90;;;24.50;99.90;;;;;;5031077;28;20638;-75
2022/10/17 11:09:57;;;;;;;4.43;2.17;;;24.50;99.90;;;;;;5031431;28;20561;-76
2022/10/17 11:12:30;;;;;;;6.30;3.00;;;24.30;99.90;;;;;;5030480;28;20646;-75
2022/10/17 11:15:11;;;;;;;4.33;2.00;;;24.20;99.90;;;;;;5030025;28;20611;-75
2022/10/17 11:18:02;;;;;;;4.97;1.80;;;24.20;99.90;;;;;;5030960;28;20576;-75
2022/10/17 11:20:50;;;;;;;2.53;2.00;;;24.20;99.90;;;;;;5029949;28;20583;-75
2022/10/17 11:23:40;;;;;;;7.10;2.43;;;24.10;99.90;;;;;;5030464;28;20946;-75
2022/10/17 11:26:14;;;;;;;3.20;1.60;;;24.00;99.90;;;;;;5031292;28;20986;-74
2022/10/17 11:28:40;;;;;;;4.77;2.00;;;24.00;99.90;;;;;;5036472;28;20889;-74
2022/10/17 11:31:12;;;;;;;3.07;1.63;;;24.00;99.90;;;;;;5033290;28;20592;-74
2022/10/17 11:34:18;;;;;;;3.00;2.07;;;23.90;99.90;;;;;;5030309;28;20632;-74
2022/10/17 11:36:48;;;;;;;3.97;2.03;;;23.90;99.90;;;;;;5030854;28;20651;-77
2022/10/17 11:39:26;;;;;;;4.13;2.43;;;23.90;99.90;;;;;;5030306;28;20642;-75
2022/10/17 11:42:00;;;;;;;8.67;4.60;;;23.80;99.90;;;;;;5027948;28;21048;-75
2022/10/17 11:44:40;;;;;;;4.03;2.70;;;23.80;99.90;;;;;;5029484;28;20575;-76
2022/10/17 11:47:27;;;;;;;4.57;3.10;;;23.80;99.90;;;;;;5029543;28;20638;-75
2022/10/17 11:50:02;;;;;;;2.87;2.00;;;23.80;99.90;;;;;;5031496;28;20618;-74
2022/10/17 11:52:48;;;;;;;5.10;3.13;;;23.90;99.90;;;;;;5031563;28;20657;-77
2022/10/17 11:55:23;;;;;;;2.40;1.90;;;23.90;99.90;;;;;;5033482;28;20580;-76
2022/10/17 11:58:13;;;;;;;4.23;1.60;;;24.00;99.90;;;;;;5034498;28;20567;-75
2022/10/17 12:00:48;;;;;;;2.47;2.10;;;24.00;99.90;;;;;;5034416;28;20623;-76
2022/10/17 12:03:37;;;;;;;3.87;1.93;;;24.00;99.90;;;;;;5032674;28;21147;-75
2022/10/17 12:06:31;;;;;;;5.23;1.97;;;24.10;99.90;;;;;;5033139;28;20580;-76
2022/10/17 12:09:09;;;;;;;3.03;1.90;;;24.20;99.90;;;;;;5034462;28;20615;-75
2022/10/17 12:11:49;;;;;;;3.30;1.80;;;24.30;99.90;;;;;;5034263;28;20556;-75
2022/10/17 12:14:34;;;;;;;2.23;1.43;;;24.40;99.90;;;;;;5032802;28;20634;-74
2022/10/17 12:17:01;;;;;;;3.43;1.77;;;24.40;99.90;;;;;;5034085;28;20663;-75
2022/10/17 12:19:36;;;;;;;4.90;1.60;;;24.50;99.90;;;;;;5034361;28;21108;-75
2022/10/17 12:22:11;;;;;;;3.63;2.07;;;24.50;99.90;;;;;;5032406;28;21216;-75
2022/10/17 12:24:42;;;;;;;3.43;1.90;;;24.50;99.90;;;;;;5033061;28;20637;-75
2022/10/17 12:27:41;;;;;;;3.77;1.93;;;24.50;99.90;;;;;;5032355;28;20977;-75
2022/10/17 12:30:26;;;;;;;3.07;1.30;;;24.50;99.90;;;;;;5034293;28;20564;-76
2022/10/17 12:33:11;;;;;;;1.80;1.10;;;24.50;99.90;;;;;;5033144;28;20628;-76
2022/10/17 12:35:38;;;;;;;4.00;1.60;;;24.50;99.90;;;;;;5033005;28;20727;-76
2022/10/17 12:38:21;;;;;;;3.60;1.47;;;24.60;99.90;;;;;;5033688;28;20630;-75
2022/10/17 12:40:53;;;;;;;3.10;1.90;;;24.60;99.90;;;;;;5043291;28;20580;-76
2022/10/17 12:43:27;;;;;;;3.10;1.40;;;24.60;99.90;;;;;;5032993;28;20624;-76
2022/10/17 12:45:54;;;;;;;2.60;1.87;;;24.70;99.90;;;;;;5032474;28;20602;-76
2022/10/17 12:48:38;;;;;;;6.27;2.10;;;24.60;99.90;;;;;;5033668;28;20981;-76
2022/10/17 12:51:16;;;;;;;4.50;2.10;;;24.60;99.90;;;;;;5045444;28;20672;-75
2022/10/17 12:53:42;;;;;;;3.80;1.73;;;24.50;99.90;;;;;;5052848;28;20965;-76
2022/10/17 12:56:08;;;;;;;3.03;1.47;;;24.60;99.90;;;;;;5052433;28;20666;-75
2022/10/17 12:58:34;;;;;;;1.97;1.60;;;24.60;99.90;;;;;;5053457;28;20165;-76
2022/10/17 13:01:01;;;;;;;3.10;1.73;;;24.60;99.90;;;;;;5052310;28;20604;-76
2022/10/17 13:03:33;;;;;;;3.33;1.90;;;24.60;99.90;;;;;;5052321;28;20625;-76
2022/10/17 13:06:05;;;;;;;3.67;1.80;;;24.60;99.90;;;;;;5053501;28;21220;-76
2022/10/17 13:08:36;;;;;;;4.77;2.03;;;24.60;99.90;;;;;;5052123;28;20591;-76
2022/10/17 13:11:02;;;;;;;5.03;1.63;;;24.70;99.90;;;;;;5052738;28;20579;-76
2022/10/17 13:13:43;;;;;;;2.70;1.90;;;24.70;99.90;;;;;;5035079;28;21012;-76
2022/10/17 13:16:30;;;;;;;3.60;1.50;;;24.70;99.90;;;;;;5051875;28;20615;-76
2022/10/17 13:18:57;;;;;;;5.57;2.40;;;24.70;99.90;;;;;;5033326;28;20568;-76